sensor_id;sensor_type;location;lat;lon;timestamp;temperature;humidity
75442;DHT22;64019;48.312;14.226;2024-02-15T00:00:48;7.00;99.90
75442;DHT22;64019;48.312;14.226;2024-02-15T00:03:13;6.90;99.90
75442;DHT22;64019;48.312;14.226;2024-02-15T00:05:39;7.00;99.90
75442;DHT22;64019;48.312;14.226;2024-02-15T00:08:05;7.00;99.90
75442;DHT22;64019;48.312;14.226;2024-02-15T00:10:32;7.00;99.90
75442;DHT22;64019;48.312;14.226;2024-02-15T00:12:58;6.90;99.90
75442;DHT22;64019;48.312;14.226;2024-02-15T00:15:24;6.90;99.90
75442;DHT22;64019;48.312;14.226;2024-02-15T00:17:50;7.00;99.90
75442;DHT22;64019;48.312;14.226;2024-02-15T00:20:15;7.00;99.90
75442;DHT22;64019;48.312;14.226;2024-02-15T00:22:43;7.00;99.90
75442;DHT22;64019;48.312;14.226;2024-02-15T00:25:09;6.90;99.90
75442;DHT22;64019;48.312;14.226;2024-02-15T00:27:37;7.00;99.90
75442;DHT22;64019;48.312;14.226;2024-02-15T00:30:03;7.00;99.90
75442;DHT22;64019;48.312;14.226;2024-02-15T00:32:30;6.90;99.90
75442;DHT22;64019;48.312;14.226;2024-02-15T00:34:56;6.90;99.90
75442;DHT22;64019;48.312;14.226;2024-02-15T00:37:22;7.00;99.90
75442;DHT22;64019;48.312;14.226;2024-02-15T00:39:47;7.00;99.90
75442;DHT22;64019;48.312;14.226;2024-02-15T00:42:13;7.00;99.90
75442;DHT22;64019;48.312;14.226;2024-02-15T00:44:41;7.10;99.90
75442;DHT22;64019;48.312;14.226;2024-02-15T00:47:09;7.10;99.90
75442;DHT22;64019;48.312;14.226;2024-02-15T00:49:36;7.10;99.90
75442;DHT22;64019;48.312;14.226;2024-02-15T00:52:02;7.10;99.90
75442;DHT22;64019;48.312;14.226;2024-02-15T00:54:27;7.20;99.90
75442;DHT22;64019;48.312;14.226;2024-02-15T00:56:53;7.10;99.90
75442;DHT22;64019;48.312;14.226;2024-02-15T00:59:19;7.10;99.90
75442;DHT22;64019;48.312;14.226;2024-02-15T01:01:44;7.00;99.90
75442;DHT22;64019;48.312;14.226;2024-02-15T01:04:12;7.10;99.90
75442;DHT22;64019;48.312;14.226;2024-02-15T01:06:37;7.10;99.90
75442;DHT22;64019;48.312;14.226;2024-02-15T01:09:03;7.10;99.90
75442;DHT22;64019;48.312;14.226;2024-02-15T01:11:30;7.10;99.90
75442;DHT22;64019;48.312;14.226;2024-02-15T01:13:58;7.20;99.90
75442;DHT22;64019;48.312;14.226;2024-02-15T01:16:24;7.20;99.90
75442;DHT22;64019;48.312;14.226;2024-02-15T01:18:52;7.20;99.90
75442;DHT22;64019;48.312;14.226;2024-02-15T01:21:18;7.20;99.90
75442;DHT22;64019;48.312;14.226;2024-02-15T01:23:44;7.20;99.90
75442;DHT22;64019;48.312;14.226;2024-02-15T01:26:12;7.20;99.90
75442;DHT22;64019;48.312;14.226;2024-02-15T01:28:39;7.10;99.90
75442;DHT22;64019;48.312;14.226;2024-02-15T01:31:08;7.10;99.90
75442;DHT22;64019;48.312;14.226;2024-02-15T01:33:36;7.10;99.90
75442;DHT22;64019;48.312;14.226;2024-02-15T01:36:03;7.10;99.90
75442;DHT22;64019;48.312;14.226;2024-02-15T01:38:29;7.10;99.90
75442;DHT22;64019;48.312;14.226;2024-02-15T01:40:55;7.20;99.90
75442;DHT22;64019;48.312;14.226;2024-02-15T01:43:20;7.10;99.90
75442;DHT22;64019;48.312;14.226;2024-02-15T01:45:46;7.10;99.90
75442;DHT22;64019;48.312;14.226;2024-02-15T01:48:15;7.20;99.90
75442;DHT22;64019;48.312;14.226;2024-02-15T01:50:41;7.10;99.90
75442;DHT22;64019;48.312;14.226;2024-02-15T01:53:09;7.20;99.90
75442;DHT22;64019;48.312;14.226;2024-02-15T01:55:35;7.20;99.90
75442;DHT22;64019;48.312;14.226;2024-02-15T01:58:01;7.10;99.90
75442;DHT22;64019;48.312;14.226;2024-02-15T02:00:28;7.10;99.90
75442;DHT22;64019;48.312;14.226;2024-02-15T02:02:56;7.10;99.90
75442;DHT22;64019;48.312;14.226;2024-02-15T02:05:27;7.10;99.90
75442;DHT22;64019;48.312;14.226;2024-02-15T02:07:56;7.10;99.90
75442;DHT22;64019;48.312;14.226;2024-02-15T02:10:25;7.10;99.90
75442;DHT22;64019;48.312;14.226;2024-02-15T02:12:52;7.20;99.90
75442;DHT22;64019;48.312;14.226;2024-02-15T02:15:18;7.20;99.90
75442;DHT22;64019;48.312;14.226;2024-02-15T02:17:49;7.20;99.90
75442;DHT22;64019;48.312;14.226;2024-02-15T02:20:16;7.10;99.90
75442;DHT22;64019;48.312;14.226;2024-02-15T02:22:47;7.10;99.90
75442;DHT22;64019;48.312;14.226;2024-02-15T02:25:13;7.10;99.90
75442;DHT22;64019;48.312;14.226;2024-02-15T02:27:39;7.10;99.90
75442;DHT22;64019;48.312;14.226;2024-02-15T02:30:15;7.00;99.90
75442;DHT22;64019;48.312;14.226;2024-02-15T02:32:44;7.10;99.90
75442;DHT22;64019;48.312;14.226;2024-02-15T02:35:10;7.10;99.90
75442;DHT22;64019;48.312;14.226;2024-02-15T02:37:39;7.00;99.90
75442;DHT22;64019;48.312;14.226;2024-02-15T02:40:06;6.90;99.90
75442;DHT22;64019;48.312;14.226;2024-02-15T02:42:52;6.90;99.90
75442;DHT22;64019;48.312;14.226;2024-02-15T02:45:19;7.00;99.90
75442;DHT22;64019;48.312;14.226;2024-02-15T02:47:49;6.90;99.90
75442;DHT22;64019;48.312;14.226;2024-02-15T02:50:15;7.00;99.90
75442;DHT22;64019;48.312;14.226;2024-02-15T02:52:41;7.10;99.90
75442;DHT22;64019;48.312;14.226;2024-02-15T02:55:07;7.10;99.90
75442;DHT22;64019;48.312;14.226;2024-02-15T02:57:37;7.10;99.90
75442;DHT22;64019;48.312;14.226;2024-02-15T03:00:07;7.10;99.90
75442;DHT22;64019;48.312;14.226;2024-02-15T03:02:34;7.10;99.90
75442;DHT22;64019;48.312;14.226;2024-02-15T03:05:04;7.20;99.90
75442;DHT22;64019;48.312;14.226;2024-02-15T03:07:32;7.10;99.90
75442;DHT22;64019;48.312;14.226;2024-02-15T03:09:58;7.10;99.90
75442;DHT22;64019;48.312;14.226;2024-02-15T03:12:24;7.10;99.90
75442;DHT22;64019;48.312;14.226;2024-02-15T03:14:52;7.00;99.90
75442;DHT22;64019;48.312;14.226;2024-02-15T03:17:18;7.00;99.90
75442;DHT22;64019;48.312;14.226;2024-02-15T03:19:43;7.00;99.90
75442;DHT22;64019;48.312;14.226;2024-02-15T03:22:09;6.90;99.90
75442;DHT22;64019;48.312;14.226;2024-02-15T03:24:36;6.90;99.90
75442;DHT22;64019;48.312;14.226;2024-02-15T03:27:02;6.90;99.90
75442;DHT22;64019;48.312;14.226;2024-02-15T03:29:28;6.90;99.90
75442;DHT22;64019;48.312;14.226;2024-02-15T03:31:54;7.00;99.90
75442;DHT22;64019;48.312;14.226;2024-02-15T03:34:21;6.90;99.90
75442;DHT22;64019;48.312;14.226;2024-02-15T03:36:47;6.90;99.90
75442;DHT22;64019;48.312;14.226;2024-02-15T03:39:19;6.90;99.90
75442;DHT22;64019;48.312;14.226;2024-02-15T03:41:46;6.90;99.90
75442;DHT22;64019;48.312;14.226;2024-02-15T03:44:14;6.90;99.90
75442;DHT22;64019;48.312;14.226;2024-02-15T03:46:40;6.90;99.90
75442;DHT22;64019;48.312;14.226;2024-02-15T03:49:06;6.90;99.90
75442;DHT22;64019;48.312;14.226;2024-02-15T03:51:34;6.90;99.90
75442;DHT22;64019;48.312;14.226;2024-02-15T03:54:00;6.80;99.90
75442;DHT22;64019;48.312;14.226;2024-02-15T03:56:25;6.80;99.90
75442;DHT22;64019;48.312;14.226;2024-02-15T03:58:51;6.80;99.90
75442;DHT22;64019;48.312;14.226;2024-02-15T04:01:17;6.80;99.90
75442;DHT22;64019;48.312;14.226;2024-02-15T04:03:43;6.80;99.90
75442;DHT22;64019;48.312;14.226;2024-02-15T04:06:08;6.90;99.90
75442;DHT22;64019;48.312;14.226;2024-02-15T04:08:38;6.80;99.90
75442;DHT22;64019;48.312;14.226;2024-02-15T04:11:05;6.80;99.90
75442;DHT22;64019;48.312;14.226;2024-02-15T04:13:33;6.80;99.90
75442;DHT22;64019;48.312;14.226;2024-02-15T04:15:59;6.80;99.90
75442;DHT22;64019;48.312;14.226;2024-02-15T04:18:24;6.80;99.90
75442;DHT22;64019;48.312;14.226;2024-02-15T04:20:50;6.80;99.90
75442;DHT22;64019;48.312;14.226;2024-02-15T04:23:17;6.80;99.90
75442;DHT22;64019;48.312;14.226;2024-02-15T04:25:44;6.80;99.90
75442;DHT22;64019;48.312;14.226;2024-02-15T04:28:16;6.70;99.90
75442;DHT22;64019;48.312;14.226;2024-02-15T04:30:42;6.70;99.90
75442;DHT22;64019;48.312;14.226;2024-02-15T04:33:07;6.70;99.90
75442;DHT22;64019;48.312;14.226;2024-02-15T04:35:34;6.70;99.90
75442;DHT22;64019;48.312;14.226;2024-02-15T04:38:00;6.70;99.90
75442;DHT22;64019;48.312;14.226;2024-02-15T04:40:26;6.70;99.90
75442;DHT22;64019;48.312;14.226;2024-02-15T04:42:52;6.80;99.90
75442;DHT22;64019;48.312;14.226;2024-02-15T04:45:17;6.80;99.90
75442;DHT22;64019;48.312;14.226;2024-02-15T04:47:44;6.80;99.90
75442;DHT22;64019;48.312;14.226;2024-02-15T04:50:16;6.80;99.90
75442;DHT22;64019;48.312;14.226;2024-02-15T04:52:43;6.80;99.90
75442;DHT22;64019;48.312;14.226;2024-02-15T04:55:11;6.80;99.90
75442;DHT22;64019;48.312;14.226;2024-02-15T04:57:37;6.80;99.90
75442;DHT22;64019;48.312;14.226;2024-02-15T05:00:03;6.80;99.90
75442;DHT22;64019;48.312;14.226;2024-02-15T05:02:37;6.80;99.90
75442;DHT22;64019;48.312;14.226;2024-02-15T05:05:07;6.90;99.90
75442;DHT22;64019;48.312;14.226;2024-02-15T05:07:34;6.80;99.90
75442;DHT22;64019;48.312;14.226;2024-02-15T05:10:00;6.70;99.90
75442;DHT22;64019;48.312;14.226;2024-02-15T05:12:31;6.70;99.90
75442;DHT22;64019;48.312;14.226;2024-02-15T05:14:59;6.70;99.90
75442;DHT22;64019;48.312;14.226;2024-02-15T06:16:10;6.60;99.90
75442;DHT22;64019;48.312;14.226;2024-02-15T06:18:36;6.60;99.90
75442;DHT22;64019;48.312;14.226;2024-02-15T06:21:03;6.50;99.90
75442;DHT22;64019;48.312;14.226;2024-02-15T06:23:29;6.60;99.90
75442;DHT22;64019;48.312;14.226;2024-02-15T06:25:56;6.60;99.90
75442;DHT22;64019;48.312;14.226;2024-02-15T06:28:23;6.60;99.90
75442;DHT22;64019;48.312;14.226;2024-02-15T06:31:08;6.50;99.90
75442;DHT22;64019;48.312;14.226;2024-02-15T06:33:52;6.50;99.90
75442;DHT22;64019;48.312;14.226;2024-02-15T06:36:48;6.50;99.90
75442;DHT22;64019;48.312;14.226;2024-02-15T06:39:32;6.50;99.90
75442;DHT22;64019;48.312;14.226;2024-02-15T06:42:13;6.50;99.90
75442;DHT22;64019;48.312;14.226;2024-02-15T06:44:47;6.50;99.90
75442;DHT22;64019;48.312;14.226;2024-02-15T06:47:14;6.50;99.90
75442;DHT22;64019;48.312;14.226;2024-02-15T06:49:42;6.60;99.90
75442;DHT22;64019;48.312;14.226;2024-02-15T06:52:11;6.60;99.90
75442;DHT22;64019;48.312;14.226;2024-02-15T06:54:41;6.70;99.90
75442;DHT22;64019;48.312;14.226;2024-02-15T06:57:07;6.70;99.90
75442;DHT22;64019;48.312;14.226;2024-02-15T06:59:33;6.70;99.90
75442;DHT22;64019;48.312;14.226;2024-02-15T07:02:04;6.70;99.90
75442;DHT22;64019;48.312;14.226;2024-02-15T07:04:33;6.70;99.90
75442;DHT22;64019;48.312;14.226;2024-02-15T07:06:59;6.80;99.90
75442;DHT22;64019;48.312;14.226;2024-02-15T07:09:25;6.80;99.90
75442;DHT22;64019;48.312;14.226;2024-02-15T07:11:51;6.80;99.90
75442;DHT22;64019;48.312;14.226;2024-02-15T07:14:17;6.80;99.90
75442;DHT22;64019;48.312;14.226;2024-02-15T07:16:47;6.80;99.90
75442;DHT22;64019;48.312;14.226;2024-02-15T07:19:13;6.90;99.90
75442;DHT22;64019;48.312;14.226;2024-02-15T07:21:40;6.90;99.90
75442;DHT22;64019;48.312;14.226;2024-02-15T07:24:06;7.00;99.90
75442;DHT22;64019;48.312;14.226;2024-02-15T07:26:31;7.00;99.90
75442;DHT22;64019;48.312;14.226;2024-02-15T07:29:00;7.00;99.90
75442;DHT22;64019;48.312;14.226;2024-02-15T07:31:29;7.10;99.90
75442;DHT22;64019;48.312;14.226;2024-02-15T07:33:55;7.20;99.90
75442;DHT22;64019;48.312;14.226;2024-02-15T07:36:21;7.30;99.90
75442;DHT22;64019;48.312;14.226;2024-02-15T07:38:50;7.30;99.90
75442;DHT22;64019;48.312;14.226;2024-02-15T07:41:22;7.30;99.90
75442;DHT22;64019;48.312;14.226;2024-02-15T07:43:51;7.40;99.90
75442;DHT22;64019;48.312;14.226;2024-02-15T07:46:20;7.40;99.90
75442;DHT22;64019;48.312;14.226;2024-02-15T07:48:47;7.40;99.90
75442;DHT22;64019;48.312;14.226;2024-02-15T07:51:16;7.50;99.90
75442;DHT22;64019;48.312;14.226;2024-02-15T07:53:44;7.50;99.90
75442;DHT22;64019;48.312;14.226;2024-02-15T07:56:10;7.60;99.90
75442;DHT22;64019;48.312;14.226;2024-02-15T07:58:46;7.60;99.90
75442;DHT22;64019;48.312;14.226;2024-02-15T08:01:13;7.60;99.90
75442;DHT22;64019;48.312;14.226;2024-02-15T08:03:39;7.70;99.90
75442;DHT22;64019;48.312;14.226;2024-02-15T08:06:14;7.90;99.90
75442;DHT22;64019;48.312;14.226;2024-02-15T08:08:45;7.90;99.90
75442;DHT22;64019;48.312;14.226;2024-02-15T08:11:12;8.00;99.90
75442;DHT22;64019;48.312;14.226;2024-02-15T08:13:49;8.10;99.90
75442;DHT22;64019;48.312;14.226;2024-02-15T08:16:16;8.10;99.90
75442;DHT22;64019;48.312;14.226;2024-02-15T08:18:45;8.10;99.90
75442;DHT22;64019;48.312;14.226;2024-02-15T08:21:14;8.00;99.90
75442;DHT22;64019;48.312;14.226;2024-02-15T08:23:40;8.10;99.90
75442;DHT22;64019;48.312;14.226;2024-02-15T08:26:06;8.10;99.90
75442;DHT22;64019;48.312;14.226;2024-02-15T08:28:32;8.20;99.90
75442;DHT22;64019;48.312;14.226;2024-02-15T08:30:57;8.40;99.90
75442;DHT22;64019;48.312;14.226;2024-02-15T08:33:26;8.50;99.90
75442;DHT22;64019;48.312;14.226;2024-02-15T08:35:54;8.60;99.90
75442;DHT22;64019;48.312;14.226;2024-02-15T08:38:21;8.70;99.90
75442;DHT22;64019;48.312;14.226;2024-02-15T08:40:47;8.70;99.90
75442;DHT22;64019;48.312;14.226;2024-02-15T08:43:13;8.70;99.90
75442;DHT22;64019;48.312;14.226;2024-02-15T08:45:41;8.90;99.90
75442;DHT22;64019;48.312;14.226;2024-02-15T08:48:07;9.00;99.90
75442;DHT22;64019;48.312;14.226;2024-02-15T08:50:33;9.00;99.90
75442;DHT22;64019;48.312;14.226;2024-02-15T08:52:59;9.00;99.90
75442;DHT22;64019;48.312;14.226;2024-02-15T08:55:24;9.10;99.90
75442;DHT22;64019;48.312;14.226;2024-02-15T08:57:53;9.20;99.90
75442;DHT22;64019;48.312;14.226;2024-02-15T09:00:20;9.20;99.90
75442;DHT22;64019;48.312;14.226;2024-02-15T09:02:46;9.30;99.90
75442;DHT22;64019;48.312;14.226;2024-02-15T09:05:13;9.40;99.90
75442;DHT22;64019;48.312;14.226;2024-02-15T09:07:43;9.40;99.90
75442;DHT22;64019;48.312;14.226;2024-02-15T09:10:09;9.50;99.90
75442;DHT22;64019;48.312;14.226;2024-02-15T09:12:39;9.60;99.90
75442;DHT22;64019;48.312;14.226;2024-02-15T09:15:06;9.60;99.90
75442;DHT22;64019;48.312;14.226;2024-02-15T09:17:33;9.40;99.90
75442;DHT22;64019;48.312;14.226;2024-02-15T09:20:08;9.40;99.90
75442;DHT22;64019;48.312;14.226;2024-02-15T09:22:34;9.50;99.90
75442;DHT22;64019;48.312;14.226;2024-02-15T09:25:03;9.50;99.90
75442;DHT22;64019;48.312;14.226;2024-02-15T09:27:29;9.50;99.90
75442;DHT22;64019;48.312;14.226;2024-02-15T09:29:54;9.40;99.90
75442;DHT22;64019;48.312;14.226;2024-02-15T09:32:21;9.50;99.90
75442;DHT22;64019;48.312;14.226;2024-02-15T09:34:48;9.50;99.90
75442;DHT22;64019;48.312;14.226;2024-02-15T09:37:15;9.40;99.90
75442;DHT22;64019;48.312;14.226;2024-02-15T09:39:41;9.40;99.90
75442;DHT22;64019;48.312;14.226;2024-02-15T09:42:06;9.40;99.90
75442;DHT22;64019;48.312;14.226;2024-02-15T09:44:32;9.50;99.90
75442;DHT22;64019;48.312;14.226;2024-02-15T09:47:05;9.50;99.90
75442;DHT22;64019;48.312;14.226;2024-02-15T09:49:38;9.50;99.90
75442;DHT22;64019;48.312;14.226;2024-02-15T09:52:07;9.50;99.90
75442;DHT22;64019;48.312;14.226;2024-02-15T09:54:40;9.40;99.90
75442;DHT22;64019;48.312;14.226;2024-02-15T09:57:09;9.50;99.90
75442;DHT22;64019;48.312;14.226;2024-02-15T09:59:36;9.50;99.90
75442;DHT22;64019;48.312;14.226;2024-02-15T10:02:02;9.50;99.90
75442;DHT22;64019;48.312;14.226;2024-02-15T10:04:28;9.50;99.90
75442;DHT22;64019;48.312;14.226;2024-02-15T10:06:54;9.60;99.90
75442;DHT22;64019;48.312;14.226;2024-02-15T10:09:30;9.60;99.90
75442;DHT22;64019;48.312;14.226;2024-02-15T10:11:58;9.60;99.90
75442;DHT22;64019;48.312;14.226;2024-02-15T10:14:28;9.70;99.90
75442;DHT22;64019;48.312;14.226;2024-02-15T10:16:54;9.80;99.90
75442;DHT22;64019;48.312;14.226;2024-02-15T10:19:21;9.90;99.90
75442;DHT22;64019;48.312;14.226;2024-02-15T10:21:53;10.10;99.90
75442;DHT22;64019;48.312;14.226;2024-02-15T10:24:24;10.20;99.90
75442;DHT22;64019;48.312;14.226;2024-02-15T10:26:50;10.30;99.90
75442;DHT22;64019;48.312;14.226;2024-02-15T10:29:18;10.40;99.90
75442;DHT22;64019;48.312;14.226;2024-02-15T10:31:55;10.50;99.90
75442;DHT22;64019;48.312;14.226;2024-02-15T10:34:21;10.60;99.90
75442;DHT22;64019;48.312;14.226;2024-02-15T10:36:48;10.60;99.90
75442;DHT22;64019;48.312;14.226;2024-02-15T10:39:19;10.70;99.90
75442;DHT22;64019;48.312;14.226;2024-02-15T10:41:49;10.80;99.90
75442;DHT22;64019;48.312;14.226;2024-02-15T10:44:23;10.80;99.90
75442;DHT22;64019;48.312;14.226;2024-02-15T10:46:50;10.90;99.90
75442;DHT22;64019;48.312;14.226;2024-02-15T10:49:23;11.00;99.90
75442;DHT22;64019;48.312;14.226;2024-02-15T10:51:58;11.10;99.90
75442;DHT22;64019;48.312;14.226;2024-02-15T10:57:05;11.20;99.90
75442;DHT22;64019;48.312;14.226;2024-02-15T10:59:35;11.30;99.90
75442;DHT22;64019;48.312;14.226;2024-02-15T11:04:52;11.30;99.90
75442;DHT22;64019;48.312;14.226;2024-02-15T11:07:26;11.40;99.90
75442;DHT22;64019;48.312;14.226;2024-02-15T11:09:55;11.50;99.90
75442;DHT22;64019;48.312;14.226;2024-02-15T11:12:24;11.60;99.90
75442;DHT22;64019;48.312;14.226;2024-02-15T11:14:54;11.70;99.90
75442;DHT22;64019;48.312;14.226;2024-02-15T11:20:09;11.70;99.90
75442;DHT22;64019;48.312;14.226;2024-02-15T11:22:38;11.80;99.90
75442;DHT22;64019;48.312;14.226;2024-02-15T11:25:07;11.70;99.90
75442;DHT22;64019;48.312;14.226;2024-02-15T11:27:38;11.80;99.90
75442;DHT22;64019;48.312;14.226;2024-02-15T11:30:05;11.80;99.90
75442;DHT22;64019;48.312;14.226;2024-02-15T11:32:49;11.90;99.90
75442;DHT22;64019;48.312;14.226;2024-02-15T11:35:18;11.90;99.90
75442;DHT22;64019;48.312;14.226;2024-02-15T11:37:49;11.90;99.90
75442;DHT22;64019;48.312;14.226;2024-02-15T11:40:28;11.90;99.90
75442;DHT22;64019;48.312;14.226;2024-02-15T11:43:00;11.90;99.90
75442;DHT22;64019;48.312;14.226;2024-02-15T11:45:27;12.00;99.90
75442;DHT22;64019;48.312;14.226;2024-02-15T11:48:03;12.00;99.90
75442;DHT22;64019;48.312;14.226;2024-02-15T11:50:36;12.00;99.90
75442;DHT22;64019;48.312;14.226;2024-02-15T11:53:04;12.00;99.90
75442;DHT22;64019;48.312;14.226;2024-02-15T11:55:32;12.10;99.90
75442;DHT22;64019;48.312;14.226;2024-02-15T11:58:02;12.00;99.90
75442;DHT22;64019;48.312;14.226;2024-02-15T12:00:48;12.00;99.90
75442;DHT22;64019;48.312;14.226;2024-02-15T12:03:33;12.10;99.90
75442;DHT22;64019;48.312;14.226;2024-02-15T12:06:17;12.10;99.90
75442;DHT22;64019;48.312;14.226;2024-02-15T12:09:02;12.10;99.90
75442;DHT22;64019;48.312;14.226;2024-02-15T12:11:46;12.00;99.90
75442;DHT22;64019;48.312;14.226;2024-02-15T12:14:30;12.00;99.90
75442;DHT22;64019;48.312;14.226;2024-02-15T12:17:14;12.00;99.90
75442;DHT22;64019;48.312;14.226;2024-02-15T12:20:03;12.10;99.90
75442;DHT22;64019;48.312;14.226;2024-02-15T12:22:43;12.10;99.90
75442;DHT22;64019;48.312;14.226;2024-02-15T12:25:17;12.10;99.90
75442;DHT22;64019;48.312;14.226;2024-02-15T12:27:52;12.20;99.90
75442;DHT22;64019;48.312;14.226;2024-02-15T12:30:18;12.20;99.90
75442;DHT22;64019;48.312;14.226;2024-02-15T12:32:50;12.20;99.90
75442;DHT22;64019;48.312;14.226;2024-02-15T12:35:16;12.30;99.90
75442;DHT22;64019;48.312;14.226;2024-02-15T12:37:48;12.30;99.90
75442;DHT22;64019;48.312;14.226;2024-02-15T12:40:18;12.40;99.90
75442;DHT22;64019;48.312;14.226;2024-02-15T12:42:45;12.50;99.90
75442;DHT22;64019;48.312;14.226;2024-02-15T12:45:19;12.50;99.90
75442;DHT22;64019;48.312;14.226;2024-02-15T12:47:52;12.50;99.90
75442;DHT22;64019;48.312;14.226;2024-02-15T12:50:19;12.60;99.90
75442;DHT22;64019;48.312;14.226;2024-02-15T12:52:47;12.60;99.90
75442;DHT22;64019;48.312;14.226;2024-02-15T12:57:46;12.70;99.90
75442;DHT22;64019;48.312;14.226;2024-02-15T13:00:14;12.70;99.90
75442;DHT22;64019;48.312;14.226;2024-02-15T13:02:47;12.80;99.90
75442;DHT22;64019;48.312;14.226;2024-02-15T13:05:15;12.80;99.90
75442;DHT22;64019;48.312;14.226;2024-02-15T13:07:41;12.90;99.90
75442;DHT22;64019;48.312;14.226;2024-02-15T13:10:07;12.90;99.90
75442;DHT22;64019;48.312;14.226;2024-02-15T13:12:36;13.00;99.90
75442;DHT22;64019;48.312;14.226;2024-02-15T13:15:04;13.00;99.90
75442;DHT22;64019;48.312;14.226;2024-02-15T13:17:32;13.10;99.90
75442;DHT22;64019;48.312;14.226;2024-02-15T13:19:59;13.10;99.90
75442;DHT22;64019;48.312;14.226;2024-02-15T13:22:32;13.10;99.90
75442;DHT22;64019;48.312;14.226;2024-02-15T13:24:59;13.10;99.90
75442;DHT22;64019;48.312;14.226;2024-02-15T13:27:25;13.00;99.90
75442;DHT22;64019;48.312;14.226;2024-02-15T13:29:51;13.10;99.90
75442;DHT22;64019;48.312;14.226;2024-02-15T13:32:19;13.10;99.90
75442;DHT22;64019;48.312;14.226;2024-02-15T13:34:49;13.10;99.90
75442;DHT22;64019;48.312;14.226;2024-02-15T13:37:21;13.10;99.90
75442;DHT22;64019;48.312;14.226;2024-02-15T13:39:48;13.20;99.90
75442;DHT22;64019;48.312;14.226;2024-02-15T13:42:15;13.20;99.90
75442;DHT22;64019;48.312;14.226;2024-02-15T13:44:43;13.20;99.90
75442;DHT22;64019;48.312;14.226;2024-02-15T13:47:09;13.20;99.90
75442;DHT22;64019;48.312;14.226;2024-02-15T13:49:37;13.20;99.90
75442;DHT22;64019;48.312;14.226;2024-02-15T13:52:05;13.20;99.90
75442;DHT22;64019;48.312;14.226;2024-02-15T13:54:32;13.20;99.90
75442;DHT22;64019;48.312;14.226;2024-02-15T13:56:59;13.20;99.90
75442;DHT22;64019;48.312;14.226;2024-02-15T13:59:27;13.20;99.90
75442;DHT22;64019;48.312;14.226;2024-02-15T14:01:52;13.20;99.90
75442;DHT22;64019;48.312;14.226;2024-02-15T14:04:19;13.30;99.90
75442;DHT22;64019;48.312;14.226;2024-02-15T14:06:45;13.30;99.90
75442;DHT22;64019;48.312;14.226;2024-02-15T14:09:11;13.40;99.90
75442;DHT22;64019;48.312;14.226;2024-02-15T14:11:38;13.40;99.90
75442;DHT22;64019;48.312;14.226;2024-02-15T14:14:05;13.50;99.90
75442;DHT22;64019;48.312;14.226;2024-02-15T14:16:31;13.50;99.90
75442;DHT22;64019;48.312;14.226;2024-02-15T14:18:56;13.50;99.90
75442;DHT22;64019;48.312;14.226;2024-02-15T14:21:22;13.60;99.90
75442;DHT22;64019;48.312;14.226;2024-02-15T14:23:48;13.50;99.90
75442;DHT22;64019;48.312;14.226;2024-02-15T14:26:15;13.50;99.90
75442;DHT22;64019;48.312;14.226;2024-02-15T14:28:42;13.60;99.90
75442;DHT22;64019;48.312;14.226;2024-02-15T14:31:11;13.60;99.90
75442;DHT22;64019;48.312;14.226;2024-02-15T14:34:06;13.70;99.90
75442;DHT22;64019;48.312;14.226;2024-02-15T14:36:31;13.70;99.90
75442;DHT22;64019;48.312;14.226;2024-02-15T14:38:57;13.70;99.90
75442;DHT22;64019;48.312;14.226;2024-02-15T14:41:23;13.70;99.90
75442;DHT22;64019;48.312;14.226;2024-02-15T14:43:48;13.70;99.90
75442;DHT22;64019;48.312;14.226;2024-02-15T14:46:16;13.70;99.90
75442;DHT22;64019;48.312;14.226;2024-02-15T14:48:41;13.70;99.90
75442;DHT22;64019;48.312;14.226;2024-02-15T14:51:09;13.70;99.90
75442;DHT22;64019;48.312;14.226;2024-02-15T14:53:35;13.50;99.90
75442;DHT22;64019;48.312;14.226;2024-02-15T14:56:00;13.50;99.90
75442;DHT22;64019;48.312;14.226;2024-02-15T14:58:27;13.50;99.90
75442;DHT22;64019;48.312;14.226;2024-02-15T15:00:53;13.50;99.90
75442;DHT22;64019;48.312;14.226;2024-02-15T15:03:18;13.40;99.90
75442;DHT22;64019;48.312;14.226;2024-02-15T15:05:45;13.30;99.90
75442;DHT22;64019;48.312;14.226;2024-02-15T15:08:29;13.30;99.90
75442;DHT22;64019;48.312;14.226;2024-02-15T15:11:14;13.20;99.90
75442;DHT22;64019;48.312;14.226;2024-02-15T15:13:58;13.00;99.90
75442;DHT22;64019;48.312;14.226;2024-02-15T15:16:23;13.00;99.90
75442;DHT22;64019;48.312;14.226;2024-02-15T15:18:51;12.90;99.90
75442;DHT22;64019;48.312;14.226;2024-02-15T15:21:18;12.80;99.90
75442;DHT22;64019;48.312;14.226;2024-02-15T15:23:44;12.80;99.90
75442;DHT22;64019;48.312;14.226;2024-02-15T15:26:10;12.80;99.90
75442;DHT22;64019;48.312;14.226;2024-02-15T15:28:39;12.70;99.90
75442;DHT22;64019;48.312;14.226;2024-02-15T15:31:05;12.70;99.90
75442;DHT22;64019;48.312;14.226;2024-02-15T15:33:32;12.60;99.90
75442;DHT22;64019;48.312;14.226;2024-02-15T15:36:05;12.60;99.90
75442;DHT22;64019;48.312;14.226;2024-02-15T15:38:31;12.50;99.90
75442;DHT22;64019;48.312;14.226;2024-02-15T15:40:57;12.50;99.90
75442;DHT22;64019;48.312;14.226;2024-02-15T15:43:24;12.40;99.90
75442;DHT22;64019;48.312;14.226;2024-02-15T15:45:50;12.30;99.90
75442;DHT22;64019;48.312;14.226;2024-02-15T15:48:17;12.30;99.90
75442;DHT22;64019;48.312;14.226;2024-02-15T15:50:43;12.20;99.90
75442;DHT22;64019;48.312;14.226;2024-02-15T15:53:09;12.10;99.90
75442;DHT22;64019;48.312;14.226;2024-02-15T15:55:37;12.00;99.90
75442;DHT22;64019;48.312;14.226;2024-02-15T15:58:03;11.90;99.90
75442;DHT22;64019;48.312;14.226;2024-02-15T16:00:31;11.80;99.90
75442;DHT22;64019;48.312;14.226;2024-02-15T16:03:00;11.80;99.90
75442;DHT22;64019;48.312;14.226;2024-02-15T16:05:27;11.60;99.90
75442;DHT22;64019;48.312;14.226;2024-02-15T16:07:52;11.50;99.90
75442;DHT22;64019;48.312;14.226;2024-02-15T16:10:18;11.40;99.90
75442;DHT22;64019;48.312;14.226;2024-02-15T16:12:46;11.30;99.90
75442;DHT22;64019;48.312;14.226;2024-02-15T16:15:12;11.10;99.90
75442;DHT22;64019;48.312;14.226;2024-02-15T16:17:45;11.00;99.90
75442;DHT22;64019;48.312;14.226;2024-02-15T16:20:11;10.90;99.90
75442;DHT22;64019;48.312;14.226;2024-02-15T16:22:40;10.80;99.90
75442;DHT22;64019;48.312;14.226;2024-02-15T16:25:06;10.80;99.90
75442;DHT22;64019;48.312;14.226;2024-02-15T16:27:36;10.70;99.90
75442;DHT22;64019;48.312;14.226;2024-02-15T16:30:06;10.60;99.90
75442;DHT22;64019;48.312;14.226;2024-02-15T16:32:40;10.50;99.90
75442;DHT22;64019;48.312;14.226;2024-02-15T16:35:10;10.40;99.90
75442;DHT22;64019;48.312;14.226;2024-02-15T16:37:38;10.40;99.90
75442;DHT22;64019;48.312;14.226;2024-02-15T16:40:12;10.20;99.90
75442;DHT22;64019;48.312;14.226;2024-02-15T16:42:41;10.10;99.90